Orlando, Florida
Traffic Map
Current Weather Conditions
Orlando, Florida
Clear
Clear
33°
Feels Like: 36°
Wind Chill: 33° Ceiling: Unl
Heat Index: 36° Visibility: 10mi
Dew Point: 21° Wind: 8mph
Humidity: 47% Direction: 180° (S)
Pressure: 30in Gusts: 0mph
Raw Report DataKORL 282353Z 18007KT 10SM CLR 33/21 A3000 RMK AO2 SLP161 T03330206 10356 20333 55000
Traffic Incident Summary
Active as of:
Severity:
Category:
InformationThere was an issue retrieving the traffic information for this location. Please try a different location or try again shortly.
Advertisements
Track Severe Weather on mobile